createdAt,value
2022-12-14T00:01:22.236Z,12.93
2022-12-14T00:03:49.738Z,13.40
2022-12-14T00:06:21.446Z,13.43
2022-12-14T00:08:49.235Z,14.00
2022-12-14T00:11:16.708Z,12.73
2022-12-14T00:13:44.233Z,11.90
2022-12-14T00:16:17.929Z,12.80
2022-12-14T00:18:45.886Z,12.33
2022-12-14T00:21:14.508Z,12.30
2022-12-14T00:23:42.416Z,12.60
2022-12-14T00:26:12.476Z,11.90
2022-12-14T00:28:41.902Z,12.70
2022-12-14T00:31:09.682Z,12.43
2022-12-14T00:33:37.025Z,12.47
2022-12-14T00:36:05.168Z,11.93
2022-12-14T00:38:32.248Z,12.63
2022-12-14T00:40:59.610Z,13.20
2022-12-14T00:43:26.817Z,11.60
2022-12-14T00:45:54.116Z,11.67
2022-12-14T00:48:22.017Z,10.77
2022-12-14T00:50:50.010Z,11.43
2022-12-14T00:53:17.500Z,12.03
2022-12-14T00:55:49.048Z,11.70
2022-12-14T00:58:17.586Z,10.97
2022-12-14T01:00:44.721Z,11.10
2022-12-14T01:03:12.606Z,11.47
2022-12-14T01:05:40.270Z,10.83
2022-12-14T01:08:07.776Z,11.67
2022-12-14T01:10:34.943Z,11.57
2022-12-14T01:13:03.050Z,11.73
2022-12-14T01:15:30.131Z,10.47
2022-12-14T01:17:57.388Z,12.23
2022-12-14T01:20:24.434Z,10.83
2022-12-14T01:22:55.795Z,10.90
2022-12-14T01:25:23.016Z,9.70
2022-12-14T01:27:50.472Z,9.77
2022-12-14T01:30:19.492Z,10.63
2022-12-14T01:32:47.374Z,11.03
2022-12-14T01:35:14.911Z,10.73
2022-12-14T01:37:41.947Z,10.13
2022-12-14T01:40:09.408Z,9.87
2022-12-14T01:42:37.758Z,10.17
2022-12-14T01:45:05.390Z,10.43
2022-12-14T01:47:39.113Z,9.90
2022-12-14T01:50:09.285Z,9.57
2022-12-14T01:52:39.676Z,9.23
2022-12-14T01:55:33.065Z,9.80
2022-12-14T01:58:13.629Z,9.80
2022-12-14T02:00:40.963Z,9.43
2022-12-14T02:03:11.125Z,9.77
2022-12-14T02:05:39.953Z,9.83
2022-12-14T02:08:07.816Z,8.70
2022-12-14T02:10:35.166Z,10.00
2022-12-14T02:13:09.368Z,9.83
2022-12-14T02:15:36.530Z,9.77
2022-12-14T02:18:04.696Z,10.30
2022-12-14T02:20:36.509Z,10.23
2022-12-14T02:23:22.325Z,10.30
2022-12-14T02:25:55.386Z,9.50
2022-12-14T02:28:22.545Z,9.23
2022-12-14T02:30:56.102Z,9.17
2022-12-14T02:33:34.051Z,9.57
2022-12-14T02:36:14.837Z,8.53
2022-12-14T02:38:45.029Z,8.60
2022-12-14T02:41:23.721Z,9.47
2022-12-14T02:43:59.844Z,9.17
2022-12-14T02:46:29.871Z,8.27
2022-12-14T02:49:11.331Z,8.97
2022-12-14T02:51:57.241Z,9.77
2022-12-14T02:54:30.221Z,9.00
2022-12-14T02:57:02.775Z,9.00
2022-12-14T02:59:29.995Z,9.37
2022-12-14T03:01:57.796Z,9.00
2022-12-14T03:04:24.965Z,8.30
2022-12-14T03:06:53.962Z,7.93
2022-12-14T03:09:21.019Z,8.57
2022-12-14T03:12:00.330Z,7.97
2022-12-14T03:14:27.635Z,8.47
2022-12-14T03:16:57.763Z,9.27
2022-12-14T03:19:27.475Z,7.93
2022-12-14T03:21:56.718Z,8.67
2022-12-14T03:24:29.181Z,8.33
2022-12-14T03:27:07.155Z,8.83
2022-12-14T03:29:37.971Z,9.73
2022-12-14T03:32:12.884Z,9.17
2022-12-14T03:34:43.554Z,8.17
2022-12-14T03:37:13.332Z,9.50
2022-12-14T03:39:42.274Z,8.60
2022-12-14T03:42:15.203Z,9.23
2022-12-14T03:44:49.320Z,9.53
2022-12-14T03:47:35.254Z,8.03
2022-12-14T03:50:08.652Z,8.03
2022-12-14T03:52:39.975Z,8.53
2022-12-14T03:55:07.037Z,8.20
2022-12-14T03:57:52.084Z,9.30
2022-12-14T04:00:24.072Z,9.10
2022-12-14T04:03:00.723Z,9.70
2022-12-14T04:05:37.705Z,8.67
2022-12-14T04:08:12.879Z,9.07
2022-12-14T04:11:01.079Z,8.30
2022-12-14T04:13:49.874Z,7.67
2022-12-14T04:16:38.334Z,7.83
2022-12-14T04:19:07.954Z,7.63
2022-12-14T04:21:39.908Z,8.47
2022-12-14T04:24:35.555Z,7.63
2022-12-14T04:27:05.272Z,7.80
2022-12-14T04:29:52.809Z,7.40
2022-12-14T04:32:19.860Z,7.93
2022-12-14T04:34:51.005Z,8.73
2022-12-14T04:37:19.721Z,8.00
2022-12-14T04:39:50.141Z,7.53
2022-12-14T04:42:18.731Z,7.23
2022-12-14T04:44:49.729Z,7.87
2022-12-14T04:47:17.996Z,7.50
2022-12-14T04:49:56.790Z,7.50
2022-12-14T04:52:42.583Z,8.30
2022-12-14T04:55:13.584Z,7.60
2022-12-14T04:57:46.981Z,7.53
2022-12-14T05:00:14.754Z,8.43
2022-12-14T05:02:48.085Z,9.43
2022-12-14T05:05:17.199Z,9.20
2022-12-14T05:07:54.288Z,9.10
2022-12-14T05:10:41.672Z,9.57
2022-12-14T05:13:27.815Z,9.93
2022-12-14T05:15:56.094Z,10.33
2022-12-14T05:18:23.585Z,9.17
2022-12-14T05:20:51.219Z,8.40
2022-12-14T05:23:18.327Z,8.97
2022-12-14T05:25:45.529Z,7.57
2022-12-14T05:28:16.498Z,8.40
2022-12-14T05:30:47.098Z,8.03
2022-12-14T05:33:19.911Z,7.67
2022-12-14T05:35:47.024Z,9.13
2022-12-14T05:38:14.056Z,7.00
2022-12-14T05:40:41.103Z,6.13
2022-12-14T05:43:08.922Z,6.93
2022-12-14T05:45:35.961Z,7.73
2022-12-14T05:48:03.057Z,6.00
2022-12-14T05:50:30.089Z,7.20
2022-12-14T05:52:57.199Z,6.73
2022-12-14T05:55:24.292Z,7.07
2022-12-14T05:57:51.341Z,6.93
2022-12-14T06:00:18.576Z,7.97
2022-12-14T06:02:45.855Z,7.43
2022-12-14T06:05:12.988Z,6.93
2022-12-14T06:07:40.050Z,7.57
2022-12-14T06:10:07.342Z,7.17
2022-12-14T06:12:34.612Z,7.17
2022-12-14T06:15:01.647Z,7.57
2022-12-14T06:17:28.702Z,8.13
2022-12-14T06:19:55.740Z,6.17
2022-12-14T06:22:22.805Z,7.43
2022-12-14T06:24:49.939Z,6.80
2022-12-14T06:27:17.219Z,7.03
2022-12-14T06:29:44.455Z,6.87
2022-12-14T06:32:11.505Z,5.93
2022-12-14T06:34:41.558Z,6.53
2022-12-14T06:37:09.436Z,7.00
2022-12-14T06:39:36.840Z,5.50
2022-12-14T06:42:03.926Z,6.97
2022-12-14T06:44:31.135Z,6.70
2022-12-14T06:46:58.263Z,6.33
2022-12-14T06:49:25.446Z,6.30
2022-12-14T06:51:53.170Z,6.67
2022-12-14T06:54:20.621Z,6.63
2022-12-14T06:56:48.215Z,6.87
2022-12-14T06:59:16.814Z,5.90
2022-12-14T07:01:44.036Z,7.17
2022-12-14T07:04:11.376Z,6.20
2022-12-14T07:06:39.921Z,6.77
2022-12-14T07:09:08.290Z,5.47
2022-12-14T07:11:36.007Z,5.73
2022-12-14T07:14:07.004Z,5.40
2022-12-14T07:16:35.220Z,5.73
2022-12-14T07:19:02.513Z,5.73
2022-12-14T07:21:29.631Z,5.93
2022-12-14T07:23:56.751Z,7.30
2022-12-14T07:26:25.353Z,7.00
2022-12-14T07:28:52.860Z,5.97
2022-12-14T07:31:21.068Z,6.30
2022-12-14T07:33:48.392Z,6.30
2022-12-14T07:36:16.759Z,5.33
2022-12-14T07:38:45.366Z,6.40
2022-12-14T07:41:17.735Z,6.73
2022-12-14T07:43:49.646Z,6.20
2022-12-14T07:46:18.445Z,6.10
2022-12-14T07:48:46.380Z,7.13
2022-12-14T07:51:14.248Z,5.70
2022-12-14T07:53:41.708Z,6.67
2022-12-14T07:56:10.112Z,7.10
2022-12-14T07:58:37.428Z,5.77
2022-12-14T08:01:12.569Z,5.17
2022-12-14T08:03:41.223Z,6.00
2022-12-14T08:06:09.190Z,5.87
2022-12-14T08:08:36.617Z,6.67
2022-12-14T08:11:04.160Z,6.10
2022-12-14T08:13:31.758Z,6.00
2022-12-14T08:16:09.582Z,5.57
2022-12-14T08:18:36.806Z,6.23
2022-12-14T08:21:05.248Z,6.27
2022-12-14T08:23:33.142Z,7.00
2022-12-14T08:26:01.200Z,6.53
2022-12-14T08:28:30.053Z,6.43
2022-12-14T08:30:57.167Z,6.50
2022-12-14T08:33:24.603Z,7.23
2022-12-14T08:35:51.641Z,6.30
2022-12-14T08:38:18.752Z,6.00
2022-12-14T08:40:45.964Z,7.00
2022-12-14T08:43:13.081Z,6.53
2022-12-14T08:45:40.135Z,6.37
2022-12-14T08:48:07.305Z,6.27
2022-12-14T08:50:34.414Z,6.60
2022-12-14T08:53:01.580Z,6.03
2022-12-14T08:55:32.539Z,5.73
2022-12-14T08:58:02.518Z,6.17
2022-12-14T09:00:29.828Z,6.53
2022-12-14T09:02:57.116Z,6.50
2022-12-14T09:05:24.265Z,8.33
2022-12-14T09:07:51.557Z,7.47
2022-12-14T09:10:18.630Z,7.23
2022-12-14T09:12:45.774Z,6.00
2022-12-14T09:15:12.878Z,7.37
2022-12-14T09:17:41.472Z,6.53
2022-12-14T09:20:14.827Z,6.97
2022-12-14T09:22:41.883Z,6.53
2022-12-14T09:25:09.401Z,6.67
2022-12-14T09:27:36.723Z,7.27
2022-12-14T09:30:04.198Z,7.27
2022-12-14T09:32:31.582Z,6.70
2022-12-14T09:34:59.414Z,6.83
2022-12-14T09:37:26.432Z,7.13
2022-12-14T09:39:53.768Z,6.50
2022-12-14T09:42:21.149Z,7.57
2022-12-14T09:44:48.283Z,8.27
2022-12-14T09:47:19.030Z,7.70
2022-12-14T09:49:46.335Z,8.70
2022-12-14T09:52:19.297Z,6.53
2022-12-14T09:54:49.773Z,6.43
2022-12-14T09:57:29.379Z,5.70
2022-12-14T09:59:57.797Z,6.30
2022-12-14T10:02:36.997Z,6.87
2022-12-14T10:05:07.240Z,6.67
2022-12-14T10:07:57.301Z,7.77
2022-12-14T10:10:39.007Z,7.47
2022-12-14T10:13:11.821Z,7.67
2022-12-14T10:15:57.368Z,7.17
2022-12-14T10:19:00.141Z,6.53
2022-12-14T10:21:40.498Z,6.60
2022-12-14T10:24:08.115Z,6.43
2022-12-14T10:26:43.328Z,7.40
2022-12-14T10:29:19.551Z,6.47
2022-12-14T10:32:00.285Z,6.53
2022-12-14T10:34:29.553Z,6.03
2022-12-14T10:37:15.421Z,6.30
2022-12-14T10:39:49.349Z,6.10
2022-12-14T10:42:37.067Z,6.50
2022-12-14T10:47:57.524Z,6.17
2022-12-14T10:50:29.996Z,6.43
2022-12-14T10:52:58.398Z,5.93
2022-12-14T10:55:30.214Z,6.10
2022-12-14T10:57:57.239Z,6.77
2022-12-14T11:00:24.352Z,6.57
2022-12-14T11:02:54.748Z,5.37
2022-12-14T11:05:32.524Z,6.43
2022-12-14T11:08:02.979Z,6.83
2022-12-14T11:10:32.470Z,6.40
2022-12-14T11:13:04.009Z,6.17
2022-12-14T11:15:35.964Z,6.27
2022-12-14T11:18:06.190Z,6.90
2022-12-14T11:20:34.322Z,6.47
2022-12-14T11:23:18.377Z,6.03
2022-12-14T11:25:47.092Z,7.57
2022-12-14T11:28:19.279Z,6.37
2022-12-14T11:31:12.830Z,5.90
2022-12-14T11:33:50.818Z,6.10
2022-12-14T11:36:25.231Z,6.83
2022-12-14T11:39:02.425Z,7.30
2022-12-14T11:41:31.194Z,6.50
2022-12-14T11:44:06.541Z,6.30
2022-12-14T11:46:47.835Z,6.10
2022-12-14T11:49:22.646Z,5.80
2022-12-14T11:52:01.057Z,6.60
2022-12-14T11:54:28.549Z,6.03
2022-12-14T11:57:30.935Z,6.20
2022-12-14T11:59:59.512Z,6.83
2022-12-14T12:02:31.038Z,6.90
2022-12-14T12:05:05.833Z,5.97
2022-12-14T12:07:34.488Z,6.40
2022-12-14T12:10:02.980Z,6.70
2022-12-14T12:12:31.190Z,6.50
2022-12-14T12:14:59.106Z,6.87
2022-12-14T12:17:38.685Z,6.83
2022-12-14T12:20:12.941Z,6.07
2022-12-14T12:22:43.879Z,7.57
2022-12-14T12:25:36.746Z,7.07
2022-12-14T12:28:15.120Z,7.20
2022-12-14T12:30:43.862Z,6.37
2022-12-14T12:33:31.298Z,6.27
2022-12-14T12:36:01.512Z,6.93
2022-12-14T12:38:34.478Z,7.80
2022-12-14T12:41:03.808Z,7.50
2022-12-14T12:43:35.087Z,7.80
2022-12-14T12:46:07.010Z,7.73
2022-12-14T12:49:12.892Z,7.17
2022-12-14T12:51:46.325Z,7.57
2022-12-14T12:54:16.947Z,6.50
2022-12-14T12:56:48.290Z,7.70
2022-12-14T12:59:20.670Z,9.17
2022-12-14T13:01:51.531Z,7.77
2022-12-14T13:04:32.885Z,7.80
2022-12-14T13:06:59.953Z,7.27
2022-12-14T13:09:39.203Z,7.00
2022-12-14T13:12:07.960Z,6.50
2022-12-14T13:14:49.988Z,6.97
2022-12-14T13:17:36.299Z,6.63
2022-12-14T13:20:05.588Z,23.00
2022-12-14T13:22:34.325Z,19.67
2022-12-14T13:25:06.190Z,10.20
2022-12-14T13:27:33.314Z,7.17
2022-12-14T13:30:19.211Z,7.30
2022-12-14T13:32:52.297Z,6.63
2022-12-14T13:35:19.329Z,6.40
2022-12-14T13:37:52.601Z,7.40
2022-12-14T13:40:25.932Z,7.43
2022-12-14T13:42:59.508Z,5.87
2022-12-14T13:45:31.498Z,6.80
2022-12-14T13:47:59.313Z,6.23
2022-12-14T13:50:37.845Z,5.90
2022-12-14T13:53:13.179Z,6.50
2022-12-14T13:55:52.142Z,5.47
2022-12-14T13:58:20.881Z,6.63
2022-12-14T14:00:53.889Z,5.47
2022-12-14T14:03:36.140Z,6.17
2022-12-14T14:06:12.516Z,6.03
2022-12-14T14:08:47.050Z,6.37
2022-12-14T14:11:39.176Z,6.23
2022-12-14T14:14:18.512Z,6.50
2022-12-14T14:16:47.816Z,5.60
2022-12-14T14:19:25.233Z,5.77
2022-12-14T14:22:26.645Z,5.83
2022-12-14T14:24:56.228Z,5.63
2022-12-14T14:27:25.114Z,5.27
2022-12-14T14:29:53.044Z,6.13
2022-12-14T14:32:27.941Z,7.07
2022-12-14T14:34:55.233Z,13.07
2022-12-14T14:37:22.453Z,10.93
2022-12-14T14:40:07.204Z,9.40
2022-12-14T14:43:22.073Z,6.33
2022-12-14T14:45:50.902Z,12.23
2022-12-14T14:48:23.579Z,7.30
2022-12-14T14:51:01.625Z,6.80
2022-12-14T14:53:30.805Z,6.27
2022-12-14T14:56:02.794Z,7.63
2022-12-14T14:58:35.193Z,6.87
2022-12-14T15:01:04.208Z,7.30
2022-12-14T15:03:39.305Z,6.63
2022-12-14T15:06:11.621Z,6.37
2022-12-14T15:08:40.371Z,7.73
2022-12-14T15:11:14.186Z,8.87
2022-12-14T15:13:57.190Z,8.00
2022-12-14T15:16:34.543Z,7.70
2022-12-14T15:19:20.607Z,6.87
2022-12-14T15:21:49.537Z,6.33
2022-12-14T15:24:16.835Z,6.00
2022-12-14T15:26:43.889Z,6.93
2022-12-14T15:29:17.081Z,6.57
2022-12-14T15:31:45.394Z,6.67
2022-12-14T15:34:20.141Z,7.27
2022-12-14T15:36:48.016Z,6.77
2022-12-14T15:39:38.183Z,7.57
2022-12-14T15:42:06.711Z,8.47
2022-12-14T15:44:33.763Z,8.77
2022-12-14T15:47:00.782Z,8.37
2022-12-14T15:49:27.820Z,7.03
2022-12-14T15:51:55.853Z,7.50
2022-12-14T15:54:24.256Z,7.90
2022-12-14T15:56:52.430Z,8.03
2022-12-14T15:59:40.716Z,7.90
2022-12-14T16:02:25.325Z,7.50
2022-12-14T16:04:52.877Z,7.13
2022-12-14T16:07:27.457Z,7.50
2022-12-14T16:09:57.145Z,7.70
2022-12-14T16:12:28.094Z,7.50
2022-12-14T16:14:59.838Z,8.93
2022-12-14T16:17:37.183Z,8.20
2022-12-14T16:20:10.112Z,9.10
2022-12-14T16:22:39.675Z,13.87
2022-12-14T16:25:09.448Z,11.00
2022-12-14T16:27:50.149Z,10.53
2022-12-14T16:30:23.397Z,10.97
2022-12-14T16:32:52.717Z,9.00
2022-12-14T16:35:23.282Z,8.30
2022-12-14T16:37:51.859Z,8.97
2022-12-14T16:40:24.126Z,8.97
2022-12-14T16:42:51.234Z,8.87
2022-12-14T16:45:46.159Z,8.23
2022-12-14T16:48:24.694Z,7.53
2022-12-14T16:50:58.034Z,8.63
2022-12-14T16:53:32.322Z,7.30
2022-12-14T16:56:20.418Z,8.10
2022-12-14T16:59:01.704Z,7.37
2022-12-14T17:01:29.541Z,8.90
2022-12-14T17:04:04.597Z,7.93
2022-12-14T17:06:34.573Z,8.60
2022-12-14T17:09:01.635Z,7.90
2022-12-14T17:11:28.847Z,9.00
2022-12-14T17:13:55.897Z,8.70
2022-12-14T17:16:23.015Z,8.00
2022-12-14T17:18:50.261Z,8.30
2022-12-14T17:21:20.233Z,8.80
2022-12-14T17:23:47.327Z,8.70
2022-12-14T17:26:21.884Z,9.60
2022-12-14T17:28:49.656Z,8.00
2022-12-14T17:31:18.542Z,8.37
2022-12-14T17:33:45.804Z,8.47
2022-12-14T17:36:12.921Z,9.20
2022-12-14T17:39:17.885Z,9.60
2022-12-14T17:41:45.939Z,8.40
2022-12-14T17:44:17.860Z,8.97
2022-12-14T17:46:46.379Z,9.13
2022-12-14T17:49:14.617Z,8.87
2022-12-14T17:51:43.500Z,9.27
2022-12-14T17:54:14.333Z,8.80
2022-12-14T17:56:41.385Z,9.87
2022-12-14T17:59:08.556Z,15.07
2022-12-14T18:01:35.762Z,10.70
2022-12-14T18:04:02.922Z,10.87
2022-12-14T18:06:30.114Z,9.60
2022-12-14T18:08:57.244Z,10.60
2022-12-14T18:11:26.865Z,10.47
2022-12-14T18:13:54.169Z,10.07
2022-12-14T18:16:22.262Z,9.67
2022-12-14T18:18:49.446Z,9.10
2022-12-14T18:21:18.177Z,10.70
2022-12-14T18:23:46.026Z,9.07
2022-12-14T18:26:13.369Z,10.23
2022-12-14T18:28:42.360Z,10.00
2022-12-14T18:31:15.980Z,9.57
2022-12-14T18:33:43.600Z,8.93
2022-12-14T18:36:11.940Z,10.27
2022-12-14T18:38:38.998Z,10.07
2022-12-14T18:41:06.579Z,11.60
2022-12-14T18:43:35.683Z,10.13
2022-12-14T18:46:06.219Z,11.47
2022-12-14T18:48:33.398Z,11.63
2022-12-14T18:51:00.733Z,11.57
2022-12-14T18:53:28.252Z,11.27
2022-12-14T18:55:55.811Z,10.70
2022-12-14T18:58:24.392Z,11.30
2022-12-14T19:00:52.677Z,13.43
2022-12-14T19:03:20.212Z,11.70
2022-12-14T19:05:47.827Z,15.67
2022-12-14T19:08:14.930Z,13.73
2022-12-14T19:10:43.416Z,12.10
2022-12-14T19:13:25.796Z,12.40
2022-12-14T19:15:53.997Z,16.57
2022-12-14T19:18:21.146Z,16.80
2022-12-14T19:20:49.633Z,15.20
2022-12-14T19:23:17.725Z,13.40
2022-12-14T19:25:44.889Z,11.30
2022-12-14T19:28:30.912Z,11.07
2022-12-14T19:30:59.519Z,15.70
2022-12-14T19:33:27.139Z,20.43
2022-12-14T19:35:54.759Z,14.90
2022-12-14T19:38:22.112Z,12.07
2022-12-14T19:41:02.740Z,12.57
2022-12-14T19:43:30.564Z,13.73
2022-12-14T19:45:57.992Z,16.40
2022-12-14T19:48:25.166Z,27.43
2022-12-14T19:50:52.382Z,37.17
2022-12-14T19:53:23.723Z,35.63
2022-12-14T19:55:52.569Z,19.93
2022-12-14T19:58:21.800Z,16.07
2022-12-14T20:00:49.710Z,67.80
2022-12-14T20:03:17.149Z,35.37
2022-12-14T20:05:54.933Z,27.60
2022-12-14T20:08:22.306Z,15.07
2022-12-14T20:10:49.922Z,15.90
2022-12-14T20:13:17.027Z,15.10
2022-12-14T20:15:54.508Z,15.20
2022-12-14T20:18:22.531Z,14.87
2022-12-14T20:20:50.195Z,13.27
2022-12-14T20:23:17.925Z,13.67
2022-12-14T20:25:45.107Z,13.23
2022-12-14T20:28:12.187Z,11.27
2022-12-14T20:30:46.454Z,12.30
2022-12-14T20:33:13.941Z,12.50
2022-12-14T20:35:41.136Z,11.27
2022-12-14T20:38:08.419Z,12.10
2022-12-14T20:40:38.842Z,12.23
2022-12-14T20:43:06.523Z,13.40
2022-12-14T20:45:37.791Z,11.97
2022-12-14T20:48:04.963Z,11.40
2022-12-14T20:50:32.235Z,10.73
2022-12-14T20:52:59.284Z,13.03
2022-12-14T20:55:26.387Z,12.80
2022-12-14T20:57:53.968Z,11.47
2022-12-14T21:00:21.160Z,13.43
2022-12-14T21:02:48.395Z,12.37
2022-12-14T21:05:16.628Z,11.90
2022-12-14T21:07:43.932Z,12.37
2022-12-14T21:10:11.092Z,12.47
2022-12-14T21:12:38.175Z,13.07
2022-12-14T21:15:05.510Z,12.20
2022-12-14T21:17:33.606Z,13.30
2022-12-14T21:20:00.708Z,13.53
2022-12-14T21:22:28.931Z,12.47
2022-12-14T21:25:05.106Z,14.60
2022-12-14T21:27:33.885Z,12.33
2022-12-14T21:30:01.448Z,13.57
2022-12-14T21:32:28.982Z,13.53
2022-12-14T21:34:56.087Z,13.57
2022-12-14T21:37:23.290Z,12.20
2022-12-14T21:39:54.771Z,12.97
2022-12-14T21:42:25.662Z,12.23
2022-12-14T21:44:53.264Z,12.40
2022-12-14T21:47:20.589Z,12.17
2022-12-14T21:49:48.077Z,11.50
2022-12-14T21:52:16.853Z,12.07
2022-12-14T21:54:44.391Z,12.13
2022-12-14T21:57:36.909Z,12.97
2022-12-14T22:00:05.372Z,15.03
2022-12-14T22:02:32.601Z,13.70
2022-12-14T22:04:59.720Z,13.57
2022-12-14T22:07:31.632Z,12.60
2022-12-14T22:09:58.779Z,12.00
2022-12-14T22:12:25.955Z,11.40
2022-12-14T22:14:53.062Z,12.10
2022-12-14T22:17:20.334Z,12.07
2022-12-14T22:19:48.803Z,12.70
2022-12-14T22:22:16.885Z,10.87
2022-12-14T22:24:44.518Z,11.63
2022-12-14T22:27:12.079Z,12.77
2022-12-14T22:29:39.228Z,13.27
2022-12-14T22:32:07.140Z,11.37
2022-12-14T22:34:34.429Z,12.70
2022-12-14T22:37:01.681Z,11.33
2022-12-14T22:39:28.760Z,12.33
2022-12-14T22:41:56.462Z,12.40
2022-12-14T22:44:23.494Z,10.70
2022-12-14T22:46:50.738Z,10.83
2022-12-14T22:49:18.473Z,11.63
2022-12-14T22:51:45.716Z,11.77
2022-12-14T22:54:18.489Z,12.30
2022-12-14T22:56:48.225Z,12.83
2022-12-14T22:59:17.813Z,12.43
2022-12-14T23:01:50.053Z,12.63
2022-12-14T23:04:18.062Z,12.33
2022-12-14T23:06:45.694Z,11.87
2022-12-14T23:09:31.310Z,11.50
2022-12-14T23:12:21.498Z,10.97
2022-12-14T23:15:07.627Z,12.73
2022-12-14T23:17:53.673Z,12.27
2022-12-14T23:20:39.432Z,13.77
2022-12-14T23:23:25.950Z,12.90
2022-12-14T23:26:12.022Z,11.77
2022-12-14T23:28:58.157Z,10.57
2022-12-14T23:31:44.078Z,13.73
2022-12-14T23:34:30.033Z,12.27
2022-12-14T23:37:20.123Z,12.13
2022-12-14T23:40:06.760Z,13.50
2022-12-14T23:42:52.604Z,12.17
2022-12-14T23:45:38.387Z,11.80
2022-12-14T23:48:24.298Z,13.17
2022-12-14T23:51:10.321Z,11.80
2022-12-14T23:53:55.995Z,11.17
2022-12-14T23:56:41.939Z,12.23
2022-12-14T23:59:32.045Z,11.97
